createdAt,value
2022-09-06T05:31:28.866Z,59.69
2022-09-06T05:32:28.753Z,59.5
2022-09-06T05:33:33.143Z,59.21
2022-09-06T05:34:32.048Z,59.52
2022-09-06T05:35:33.695Z,59.55
2022-09-06T05:36:40.563Z,59.96
2022-09-06T05:37:34.200Z,60.1
2022-09-06T05:38:38.891Z,59.92
2022-09-06T05:39:38.709Z,60.38
2022-09-06T05:40:38.463Z,60.03
2022-09-06T05:41:41.400Z,60.33
2022-09-06T05:42:41.781Z,61.09
2022-09-06T05:43:45.090Z,61.35
2022-09-06T05:44:48.101Z,61.25
2022-09-06T05:52:08.300Z,62.1
2022-09-06T05:53:11.135Z,62.18
2022-09-06T05:54:13.960Z,62.14
2022-09-06T05:55:16.799Z,61.96
2022-09-06T05:56:19.638Z,62.56
2022-09-06T05:57:22.530Z,63.15
2022-09-06T05:58:25.737Z,63.25
2022-09-06T05:59:28.619Z,63.18
2022-09-06T06:00:31.464Z,63.2
2022-09-06T06:01:34.512Z,63.3
2022-09-06T06:02:37.832Z,63.55
2022-09-06T06:03:40.953Z,63.67
2022-09-06T06:04:43.812Z,63.51
2022-09-06T06:05:46.746Z,63.92
2022-09-06T06:06:49.641Z,64.44
2022-09-06T06:07:52.511Z,64.91
2022-09-06T06:08:55.350Z,64.95
2022-09-06T06:09:58.245Z,64.74
2022-09-06T06:11:01.068Z,65.61
2022-09-06T06:12:03.858Z,65.22
2022-09-06T06:13:06.680Z,65.79
2022-09-06T06:14:09.486Z,65.52
2022-09-06T06:15:12.405Z,66.6
2022-09-06T06:16:15.436Z,66.55
2022-09-06T06:17:18.533Z,66.58
2022-09-06T06:18:21.595Z,66.75
2022-09-06T06:19:24.779Z,67.18
2022-09-06T06:20:27.664Z,67.15
2022-09-06T06:21:30.718Z,67.04
2022-09-06T06:22:33.559Z,67.13
2022-09-06T06:23:36.366Z,67
2022-09-06T06:24:39.232Z,66.98
2022-09-06T06:25:42.042Z,67.31
2022-09-06T06:26:44.887Z,67.02
2022-09-06T06:27:47.751Z,67.31
2022-09-06T06:28:50.667Z,67.22
2022-09-06T06:29:51.271Z,67.17
2022-09-06T06:30:51.473Z,66.55
2022-09-06T06:31:55.047Z,66.51
2022-09-06T06:32:55.105Z,65.89
2022-09-06T06:33:57.934Z,65.36
2022-09-06T06:35:00.770Z,65.18
2022-09-06T06:36:03.583Z,64.54
2022-09-06T06:37:06.433Z,64.41
2022-09-06T06:38:09.255Z,64.12
2022-09-06T06:39:12.058Z,64.03
2022-09-06T06:40:14.971Z,64.06
2022-09-06T06:41:17.798Z,64
2022-09-06T06:42:20.654Z,64.52
2022-09-06T06:43:23.451Z,64.94
2022-09-06T06:44:26.290Z,64.46
2022-09-06T06:45:29.301Z,65.44
2022-09-06T06:46:32.337Z,65.38
2022-09-06T06:47:35.177Z,65.34
2022-09-06T06:48:38.003Z,65.97
2022-09-06T06:49:40.815Z,65.97
2022-09-06T06:50:43.672Z,66.26
2022-09-06T06:51:46.503Z,66.29
2022-09-06T06:52:49.294Z,65.98
2022-09-06T06:53:52.107Z,66.05
2022-09-06T06:54:54.897Z,66.5
2022-09-06T06:55:57.685Z,66.68
2022-09-06T06:57:00.524Z,66.61
2022-09-06T06:58:03.448Z,66.15
2022-09-06T06:59:06.266Z,65.93
2022-09-06T07:00:09.087Z,65.62
2022-09-06T07:01:12.687Z,65.2
2022-09-06T07:02:13.764Z,64.89
2022-09-06T07:03:13.546Z,64.87
2022-09-06T07:04:16.488Z,64.48
2022-09-06T14:59:14.168Z,37.79
2022-09-06T15:02:23.383Z,37.57
2022-09-06T15:03:26.691Z,38.05
2022-09-06T15:04:30.371Z,37.35
2022-09-06T15:06:03.066Z,37.86
2022-09-06T15:06:37.728Z,38.5
2022-09-06T15:07:33.621Z,38.94
2022-09-06T15:08:36.479Z,39.55
2022-09-06T15:09:39.553Z,40.43
2022-09-06T15:10:42.544Z,40.36
2022-09-06T15:11:45.569Z,40.8
2022-09-06T15:12:48.499Z,39.51
2022-09-06T15:13:51.339Z,40.31
2022-09-06T15:14:54.236Z,40.44
2022-09-06T15:15:57.513Z,40.46
2022-09-06T15:16:59.637Z,40.84
2022-09-06T15:18:00.092Z,40.81
2022-09-06T15:19:03.263Z,40.1
2022-09-06T15:20:12.447Z,40.19
2022-09-06T15:21:07.678Z,41.39
2022-09-06T15:22:19.628Z,41.42
2022-09-06T15:23:25.898Z,41.82
2022-09-06T15:24:15.222Z,41.57
2022-09-06T15:25:18.272Z,40.52
2022-09-06T15:26:21.402Z,41.33
2022-09-06T15:27:24.754Z,40.05
2022-09-06T15:28:25.084Z,40.78
2022-09-06T15:29:28.555Z,39.68
2022-09-06T15:30:37.269Z,39.71
2022-09-06T15:31:31.702Z,40.21
2022-09-06T15:32:34.719Z,40.4
2022-09-06T15:33:39.920Z,39.21
2022-09-06T15:34:49.232Z,38.77
2022-09-06T15:35:43.662Z,38.58
2022-09-06T15:36:41.531Z,38.65
2022-09-06T15:37:44.000Z,37.16
2022-09-06T15:38:54.265Z,37.9
2022-09-06T15:43:08.345Z,37.01
2022-09-06T15:44:07.403Z,36.86
2022-09-06T15:44:57.889Z,37.29
2022-09-06T15:46:01.368Z,37.47
2022-09-06T15:47:04.419Z,37.46
2022-09-06T15:48:13.547Z,37.07
2022-09-06T15:49:05.986Z,37.72
2022-09-06T15:50:09.314Z,37.34
2022-09-06T15:51:15.846Z,36.47
2022-09-06T15:52:14.007Z,37.17
2022-09-06T15:53:16.829Z,36.56
2022-09-06T15:54:31.169Z,36.01
2022-09-06T15:55:17.397Z,36.58
2022-09-06T15:56:17.515Z,36.47
2022-09-06T15:57:32.406Z,36.97
2022-09-06T15:58:32.087Z,37.9
2022-09-06T15:59:24.992Z,37.66
2022-09-06T16:00:31.103Z,37.44
2022-09-06T16:01:47.321Z,37.52
2022-09-06T16:02:41.399Z,38.44
2022-09-06T16:03:40.673Z,37.29
2022-09-06T16:04:38.279Z,37.36
2022-09-06T16:06:26.975Z,37.02
2022-09-06T16:06:43.266Z,37.65
2022-09-06T16:07:49.889Z,36.8
2022-09-06T16:08:49.936Z,36.63
2022-09-06T16:09:48.142Z,37.54
2022-09-06T16:10:54.683Z,37.77
2022-09-06T16:11:57.417Z,37.69
2022-09-06T16:13:05.054Z,37.75
2022-09-06T16:13:56.049Z,38.2
2022-09-06T16:14:58.926Z,39.28
2022-09-06T16:15:59.732Z,39.45
2022-09-06T16:17:05.148Z,39.47
2022-09-06T16:18:03.590Z,39.76
2022-09-06T16:19:04.730Z,39.44
2022-09-06T16:20:19.858Z,38.17
2022-09-06T16:21:11.551Z,37.84
2022-09-06T16:22:15.145Z,38.01
2022-09-06T16:23:15.877Z,39.09
2022-09-06T16:24:25.231Z,38.54
2022-09-06T16:25:19.302Z,37.83
2022-09-06T16:26:23.261Z,37.48
2022-09-06T16:27:26.564Z,37.5
2022-09-06T16:28:23.505Z,37.67
2022-09-06T16:29:27.529Z,37.77
2022-09-06T16:30:25.763Z,37.75
2022-09-06T16:31:27.089Z,38
2022-09-06T16:32:28.877Z,38.4
2022-09-06T16:33:29.765Z,37.63
2022-09-06T16:34:33.289Z,37.42
2022-09-06T16:35:33.823Z,38.15
2022-09-06T16:36:43.374Z,37.81
2022-09-06T16:37:37.147Z,37.69
2022-09-06T16:38:40.696Z,38.29
2022-09-06T16:39:41.581Z,38.99
2022-09-06T16:40:41.500Z,39.19
2022-09-06T16:41:41.837Z,40.19
2022-09-06T16:42:47.813Z,41.07
2022-09-06T16:43:48.328Z,41.54
2022-09-06T16:44:51.271Z,41.97
2022-09-06T16:46:03.596Z,41.64
2022-09-06T16:46:58.772Z,41.79
2022-09-06T16:47:55.991Z,41.99
2022-09-06T16:48:56.091Z,41.95
2022-09-06T16:49:59.486Z,42.53
2022-09-06T16:51:02.667Z,42.74
2022-09-06T16:52:05.969Z,43.09
2022-09-06T16:53:05.983Z,43.12
2022-09-06T16:54:09.086Z,43.37
2022-09-06T16:55:12.021Z,42.83
2022-09-06T16:56:14.963Z,43.1
2022-09-06T16:57:17.982Z,42.4
2022-09-06T16:58:20.871Z,42.55
2022-09-06T16:59:23.789Z,42.71
2022-09-06T17:00:26.810Z,42.48
2022-09-06T17:01:30.283Z,42.79
2022-09-06T17:02:30.467Z,43.26
2022-09-06T17:03:30.229Z,43.96
2022-09-06T17:04:33.320Z,43.97
2022-09-06T17:05:36.314Z,44.85
2022-09-06T17:06:39.417Z,45.24
2022-09-06T17:07:42.629Z,45.56
2022-09-06T17:08:44.836Z,45.6
2022-09-06T17:09:44.657Z,45.33
2022-09-06T17:10:45.029Z,44.97
2022-09-06T17:11:46.017Z,44.47
2022-09-06T17:12:49.436Z,44
2022-09-06T17:13:49.456Z,43.8
2022-09-06T17:14:50.126Z,43.4
2022-09-06T17:15:49.630Z,43.24
2022-09-06T17:16:53.011Z,43.08
2022-09-06T17:17:52.762Z,42.98
2022-09-06T17:18:55.717Z,43.07
2022-09-06T17:19:58.682Z,43
2022-09-06T17:21:01.502Z,43.01
2022-09-06T17:22:04.818Z,42.63
2022-09-06T17:23:07.867Z,42.83
2022-09-06T17:24:10.947Z,42.85
2022-09-06T17:25:14.407Z,43.17
2022-09-06T17:26:15.351Z,43.32
2022-09-06T17:27:19.241Z,43.73
2022-09-06T17:28:17.884Z,43.36
2022-09-06T17:29:23.825Z,43.28
2022-09-06T17:30:20.926Z,43.24
2022-09-06T17:31:26.684Z,43.04
2022-09-06T17:32:27.172Z,43.27
2022-09-06T17:33:26.823Z,42.79
2022-09-06T17:34:27.092Z,43.07
2022-09-06T17:35:39.636Z,43.74
2022-09-06T17:36:42.034Z,43.97
2022-09-06T17:37:30.355Z,44.14
2022-09-06T17:38:32.531Z,44.03
2022-09-06T17:39:32.570Z,44.03
2022-09-06T17:40:32.559Z,43.94
2022-09-06T17:41:36.806Z,44.35
2022-09-06T17:42:37.192Z,44.4
2022-09-06T17:43:37.700Z,44.99
2022-09-06T17:44:41.066Z,45.47
2022-09-06T17:45:41.129Z,45.21
2022-09-06T17:47:16.821Z,44.87
2022-09-06T17:47:42.237Z,45.02
2022-09-06T17:48:43.658Z,44.99
2022-09-06T17:49:44.340Z,44.57
2022-09-06T17:50:47.664Z,45.24
2022-09-06T17:51:47.364Z,45.88
2022-09-06T17:52:50.611Z,46.06
2022-09-06T17:53:53.728Z,47.14
2022-09-06T17:54:54.499Z,47.19
2022-09-06T17:55:55.621Z,47.4
2022-09-06T17:56:56.741Z,46.28
2022-09-06T17:57:57.079Z,46.29
2022-09-06T17:58:56.650Z,46.15
2022-09-06T17:59:59.721Z,45.82
2022-09-06T18:01:02.883Z,45.44
2022-09-06T18:02:05.966Z,45.48
2022-09-06T18:03:09.750Z,45.57
2022-09-06T18:04:11.700Z,45.23
2022-09-06T18:05:13.669Z,45.92
2022-09-06T18:06:14.727Z,46.7
2022-09-06T18:07:15.700Z,46.57
2022-09-06T18:08:17.524Z,46.37
2022-09-06T18:09:19.482Z,47.17
2022-09-06T18:10:20.840Z,48.05
2022-09-06T18:11:21.060Z,48.06
2022-09-06T18:12:23.114Z,47.88
2022-09-06T18:13:23.299Z,48.43
2022-09-06T18:14:23.992Z,48.33
2022-09-06T18:15:24.130Z,49.18
2022-09-06T18:16:27.660Z,48.92
2022-09-06T18:17:27.482Z,48.8
2022-09-06T18:18:30.615Z,49.02
2022-09-06T18:19:36.275Z,50
2022-09-06T18:20:36.522Z,49.08
2022-09-06T18:21:37.073Z,49.51
2022-09-06T18:22:36.871Z,50.81
2022-09-06T18:23:36.961Z,51.96
2022-09-06T18:24:40.124Z,52.21
2022-09-06T18:25:43.466Z,51.8
2022-09-06T18:26:46.871Z,50.3
2022-09-06T18:27:47.079Z,49.65
2022-09-06T18:28:50.246Z,49.71
2022-09-06T18:29:50.180Z,49.61
2022-09-06T18:30:53.569Z,49.78
2022-09-06T18:31:54.051Z,49.81
2022-09-06T18:32:54.244Z,49.93
2022-09-06T18:33:54.494Z,49.73
2022-09-06T18:34:54.503Z,50.09
2022-09-06T18:35:59.535Z,50.03
2022-09-06T18:36:56.227Z,50.84
2022-09-06T18:38:11.616Z,50.62
2022-09-06T18:39:01.042Z,50.79
2022-09-06T18:40:07.065Z,50.79
2022-09-06T18:41:07.410Z,51.23
2022-09-06T18:42:07.441Z,51.28
2022-09-06T18:43:10.476Z,51.96
2022-09-06T18:44:13.926Z,51.53
2022-09-06T18:45:13.717Z,51.48
2022-09-06T18:46:17.380Z,51.4
2022-09-06T18:47:17.363Z,51.45
2022-09-06T18:48:20.607Z,51.58
2022-09-06T18:49:23.705Z,51.22
2022-09-06T18:50:26.652Z,50.95
2022-09-06T18:51:29.684Z,50.7
2022-09-06T18:52:32.741Z,50.42
2022-09-06T18:53:35.792Z,50.11
2022-09-06T18:54:38.811Z,50.21
2022-09-06T18:55:41.703Z,49.97
2022-09-06T18:56:44.615Z,50.01
2022-09-06T18:57:48.029Z,50.13
2022-09-06T18:58:47.887Z,50.15
2022-09-06T18:59:51.104Z,50.29
2022-09-06T19:00:54.496Z,50.53
2022-09-06T19:01:58.330Z,50.71
2022-09-06T19:02:58.332Z,50.62
2022-09-06T19:04:01.624Z,50.79
2022-09-06T19:05:01.485Z,50.67
2022-09-06T19:06:04.508Z,50.74
2022-09-06T19:07:07.641Z,51.02
2022-09-06T19:08:10.838Z,51.1
2022-09-06T19:09:13.961Z,51.15
2022-09-06T19:10:16.996Z,51.41
2022-09-06T19:11:19.844Z,51.25
2022-09-06T19:12:22.701Z,51.78
2022-09-06T19:13:25.856Z,51.78
2022-09-06T19:14:28.800Z,51.94
2022-09-06T19:15:31.776Z,51.77
2022-09-06T19:16:35.032Z,51.75
2022-09-06T19:17:34.788Z,52
2022-09-06T19:18:37.885Z,52.15
2022-09-06T19:19:40.805Z,52.38
2022-09-06T19:20:43.720Z,52.44
2022-09-06T19:21:46.610Z,52.52
2022-09-06T19:22:49.487Z,52.64
2022-09-06T19:23:52.343Z,52.59
2022-09-06T19:24:55.210Z,52.54
2022-09-06T19:25:58.039Z,52.38
2022-09-06T19:27:00.930Z,52.32
2022-09-06T19:28:03.781Z,52.28
2022-09-06T19:29:06.630Z,52.46
2022-09-06T19:30:09.605Z,52.67
2022-09-06T19:31:12.979Z,52.6
2022-09-06T19:32:15.592Z,52.35
2022-09-06T19:33:18.459Z,52.22
2022-09-06T19:34:21.390Z,51.73
2022-09-06T19:35:24.211Z,51.43
2022-09-06T19:36:27.141Z,51.14
2022-09-06T19:37:30.048Z,50.82
2022-09-06T19:39:02.906Z,50.57
2022-09-06T19:39:41.556Z,50.57
2022-09-06T19:40:33.421Z,50.36
2022-09-06T19:41:36.652Z,50.04
2022-09-06T19:42:39.894Z,50.05
2022-09-06T19:43:42.893Z,49.9
2022-09-06T19:44:46.619Z,50.06
2022-09-06T19:45:46.746Z,50.54
2022-09-06T19:46:47.593Z,50.02
2022-09-06T19:47:47.447Z,50.07
2022-09-06T19:48:50.364Z,50.57
2022-09-06T19:49:53.425Z,50.7
2022-09-06T19:50:56.483Z,50.81
2022-09-06T19:51:59.495Z,50.77
2022-09-06T19:53:07.551Z,50.92
2022-09-06T19:54:03.578Z,50.94
2022-09-06T19:55:06.675Z,51.21
2022-09-06T19:56:11.711Z,51.5
2022-09-06T19:57:11.099Z,51.95
2022-09-06T19:58:13.964Z,51.94
2022-09-06T19:59:16.938Z,51.95
2022-09-06T20:00:19.848Z,52.31
2022-09-06T20:01:23.042Z,52.36
2022-09-06T20:02:26.415Z,52.3
2022-09-06T20:03:29.447Z,52.44
2022-09-06T20:04:32.322Z,52.48
2022-09-06T20:05:35.210Z,52.81
2022-09-06T20:06:38.070Z,52.49
2022-09-06T20:07:41.076Z,52.39
2022-09-06T20:08:44.015Z,52.92
2022-09-06T20:09:52.714Z,52.46
2022-09-06T20:10:48.871Z,52.44
2022-09-06T20:11:51.881Z,52.25
2022-09-06T20:12:54.908Z,52.54
2022-09-06T20:13:57.829Z,52.42
2022-09-06T20:15:00.893Z,52.58
2022-09-06T20:16:04.241Z,52.56
2022-09-06T20:17:33.985Z,52.87
2022-09-06T20:18:14.498Z,53.01
2022-09-06T20:19:07.609Z,53.26
2022-09-06T20:20:10.869Z,53.42
2022-09-06T20:21:10.681Z,53.79
2022-09-06T20:22:09.170Z,53.99
2022-09-06T20:23:12.390Z,54.33
2022-09-06T20:24:33.686Z,54.27
2022-09-06T20:25:15.753Z,54.35
2022-09-06T20:26:16.031Z,54.05
2022-09-06T20:27:15.916Z,53.74
2022-09-06T20:28:18.794Z,53.8
2022-09-06T20:29:21.747Z,53.74
2022-09-06T20:30:24.879Z,53.73
2022-09-06T20:31:28.864Z,54.06
2022-09-06T20:32:29.331Z,54.14
2022-09-06T20:33:33.165Z,54.16
2022-09-06T20:34:55.501Z,54.05
2022-09-06T20:35:37.704Z,53.91
2022-09-06T20:37:02.955Z,53.75
2022-09-06T20:37:42.531Z,53.76
2022-09-06T20:38:42.903Z,53.62
2022-09-06T20:39:46.664Z,53.19
2022-09-06T20:40:46.265Z,52.99
2022-09-06T20:41:50.002Z,53.08
2022-09-06T20:42:49.737Z,52.85
2022-09-06T20:43:53.132Z,52.71
2022-09-06T20:45:05.142Z,52.85
2022-09-06T20:45:59.824Z,52.73
2022-09-06T20:47:01.565Z,53.03
2022-09-06T20:48:01.844Z,52.9
2022-09-06T20:49:05.494Z,52.84
2022-09-06T20:50:05.680Z,53.05
2022-09-06T20:51:08.263Z,53.29
2022-09-06T20:52:08.363Z,53.56
2022-09-06T20:53:10.986Z,53.51
2022-09-06T20:54:10.778Z,53.39
2022-09-06T20:55:14.769Z,53.66
2022-09-06T20:56:15.331Z,53.46
2022-09-06T20:57:15.177Z,53.43
2022-09-06T20:58:15.651Z,53.57
2022-09-06T20:59:15.718Z,53.31
2022-09-06T21:00:18.256Z,53.33
2022-09-06T21:01:22.065Z,53.03
2022-09-06T21:02:22.565Z,53.2
2022-09-06T21:03:22.710Z,53.01
2022-09-06T21:04:25.654Z,53.1
2022-09-06T21:05:28.739Z,53.11
2022-09-06T21:06:31.944Z,53.06
2022-09-06T21:07:35.769Z,53.13
2022-09-06T21:08:42.925Z,53.41
2022-09-06T21:09:36.095Z,53.79
2022-09-06T21:10:39.082Z,53.86
2022-09-06T21:11:41.978Z,53.86
2022-09-06T21:12:44.874Z,54.02
2022-09-06T21:13:47.871Z,54.71
2022-09-06T21:14:51.029Z,54.88
2022-09-06T21:15:54.163Z,55.02
2022-09-06T21:16:57.314Z,55.31
2022-09-06T21:18:00.270Z,56.04
2022-09-06T21:19:03.323Z,55.99
2022-09-06T21:20:06.170Z,55.92
2022-09-06T21:21:09.078Z,56.43
2022-09-06T21:22:11.929Z,56.43
2022-09-06T21:23:15.034Z,56.19
2022-09-06T21:24:15.680Z,56.11
2022-09-06T21:25:18.680Z,56.38
2022-09-06T21:26:21.704Z,56.77
2022-09-06T21:27:24.583Z,56.9
2022-09-06T21:28:27.642Z,56.67
2022-09-06T21:29:30.617Z,56.71
2022-09-06T21:30:33.552Z,56.63
2022-09-06T21:31:45.760Z,57.1
2022-09-06T21:32:39.191Z,56.9
2022-09-06T21:33:42.097Z,57.8
2022-09-06T21:34:48.562Z,57.45
2022-09-06T21:35:45.182Z,57.54
2022-09-06T21:36:49.225Z,57.4
2022-09-06T21:37:50.475Z,57.48
2022-09-06T21:38:51.143Z,57.34
2022-09-06T21:39:50.912Z,57.21
2022-09-06T21:40:52.361Z,57.27
2022-09-06T21:41:55.223Z,57.61
2022-09-06T21:43:03.981Z,57.38
2022-09-06T21:43:59.957Z,57.52
2022-09-06T21:45:03.132Z,57.34
2022-09-06T21:46:06.442Z,57.51
2022-09-06T21:47:09.939Z,57.49
2022-09-06T21:48:06.373Z,57.54
2022-09-06T21:49:09.296Z,57.47
2022-09-06T21:50:12.402Z,57.62
2022-09-06T21:51:15.306Z,57.45
2022-09-06T21:52:18.147Z,57.42
2022-09-06T21:53:21.092Z,57.46
2022-09-06T21:54:23.920Z,57.34
2022-09-06T21:55:26.748Z,57.17
2022-09-06T21:56:29.568Z,57.23
2022-09-06T21:57:32.400Z,57.87
2022-09-06T21:58:35.210Z,57.69
2022-09-06T21:59:38.057Z,58.06
2022-09-06T22:00:41.101Z,57.85
2022-09-06T22:01:45.601Z,57.89
2022-09-06T22:02:45.115Z,57.82
2022-09-06T22:03:48.072Z,58.06
2022-09-06T22:04:50.909Z,57.87
2022-09-06T22:05:53.757Z,57.99
2022-09-06T22:06:56.610Z,57.67
2022-09-06T22:07:59.446Z,57.79
2022-09-06T22:09:02.240Z,57.78
2022-09-06T22:10:05.071Z,57.87
2022-09-06T22:11:08.029Z,57.96
2022-09-06T22:12:10.829Z,58.14
2022-09-06T22:13:13.670Z,58.09
2022-09-06T22:14:16.492Z,57.71
2022-09-06T22:15:19.368Z,57.82
2022-09-06T22:16:22.481Z,58.23
2022-09-06T22:17:25.622Z,57.63
2022-09-06T22:18:28.763Z,57.53
2022-09-06T22:19:31.792Z,57.21
2022-09-06T22:20:34.587Z,57.07
2022-09-06T22:21:37.430Z,57.07
2022-09-06T22:22:40.433Z,57.12
2022-09-06T22:23:43.278Z,57.02
2022-09-06T22:24:46.133Z,57.34
2022-09-06T22:25:48.953Z,57.23
2022-09-06T22:26:51.790Z,57.52
2022-09-06T22:27:54.668Z,57.82
2022-09-06T22:28:57.661Z,57.7
2022-09-06T22:30:00.496Z,58.09
2022-09-06T22:31:03.604Z,57.95
2022-09-06T22:32:06.610Z,57.94
2022-09-06T22:33:09.433Z,58.29
2022-09-06T22:34:12.257Z,58.28
2022-09-06T22:35:15.072Z,58.38
2022-09-06T22:36:18.027Z,58.38
2022-09-06T22:37:20.882Z,58.39
2022-09-06T22:38:23.952Z,58.29
2022-09-06T22:39:26.997Z,58.46
2022-09-06T22:40:30.005Z,58.27
2022-09-06T22:41:32.851Z,58.5
2022-09-06T22:42:35.672Z,58.51
2022-09-06T22:43:38.525Z,58.29
2022-09-06T22:44:41.351Z,58.25
2022-09-06T22:45:51.787Z,58.23
2022-09-06T22:46:45.036Z,58.34
2022-09-06T22:47:48.151Z,58.3
2022-09-06T22:48:51.069Z,58.39
2022-09-06T22:49:53.954Z,58.37
2022-09-06T22:50:56.761Z,58.54
2022-09-06T22:51:59.587Z,58.78
2022-09-06T22:53:02.422Z,58.93
2022-09-06T22:54:05.242Z,58.89
2022-09-06T22:55:08.066Z,58.87
2022-09-06T22:56:10.901Z,58.83
2022-09-06T22:57:13.760Z,58.7
2022-09-06T22:58:16.654Z,58.87
2022-09-06T22:59:19.513Z,58.87
2022-09-06T23:00:22.332Z,58.92
2022-09-06T23:01:25.303Z,59.01
2022-09-06T23:02:28.305Z,58.99
2022-09-06T23:03:31.333Z,59.38
2022-09-06T23:04:34.419Z,59.6
2022-09-06T23:05:37.437Z,59.88
2022-09-06T23:06:40.258Z,59.86
2022-09-06T23:07:43.087Z,60.31
2022-09-06T23:08:45.914Z,59.92
2022-09-06T23:09:48.738Z,60.1
2022-09-06T23:10:51.602Z,59.92
2022-09-06T23:11:54.509Z,59.99
2022-09-06T23:12:57.451Z,59.62
2022-09-06T23:14:00.309Z,59.62
2022-09-06T23:15:03.149Z,59.33
2022-09-06T23:16:07.407Z,58.99
2022-09-06T23:17:08.514Z,59.05
2022-09-06T23:18:11.344Z,58.83
2022-09-06T23:19:14.206Z,58.64
2022-09-06T23:20:17.036Z,58.3
2022-09-06T23:21:19.879Z,58.3
2022-09-06T23:22:22.729Z,58.13
2022-09-06T23:23:25.554Z,58.15
2022-09-06T23:24:28.409Z,58.24
2022-09-06T23:25:31.236Z,58.12
2022-09-06T23:26:34.053Z,58.57
2022-09-06T23:27:36.946Z,58.52
2022-09-06T23:28:39.745Z,58.73
2022-09-06T23:29:42.627Z,58.69
2022-09-06T23:30:45.441Z,59.06
2022-09-06T23:31:48.531Z,59.29
2022-09-06T23:32:51.569Z,59.48
2022-09-06T23:33:54.383Z,59.68
2022-09-06T23:34:57.202Z,60.03
2022-09-06T23:36:00.025Z,59.99
2022-09-06T23:37:02.851Z,60.18
2022-09-06T23:38:05.666Z,60.15
2022-09-06T23:39:08.513Z,60.31
2022-09-06T23:40:11.636Z,60.11
2022-09-06T23:41:11.406Z,60.04
2022-09-06T23:42:14.548Z,60.09
2022-09-06T23:43:17.391Z,60.09
2022-09-06T23:44:20.231Z,59.81
2022-09-06T23:45:23.061Z,59.92
2022-09-06T23:46:25.972Z,59.84
2022-09-06T23:47:29.117Z,59.94
2022-09-06T23:48:32.507Z,59.93
2022-09-06T23:49:32.017Z,59.89
2022-09-06T23:50:34.814Z,59.87
2022-09-06T23:51:37.643Z,60.32
2022-09-06T23:52:40.456Z,60.12
2022-09-06T23:53:43.291Z,60.18
2022-09-06T23:54:46.231Z,60.71
2022-09-06T23:55:49.154Z,60.61
2022-09-06T23:56:51.971Z,60.76
2022-09-06T23:57:54.778Z,60.66
2022-09-06T23:58:57.604Z,60.55
